createdAt,value
2024-04-21T00:06:47.481Z,100
2024-04-21T00:35:02.470Z,100
2024-04-21T01:03:22.091Z,100
2024-04-21T01:31:37.218Z,100
2024-04-21T02:00:04.303Z,100
2024-04-21T02:28:22.174Z,100
2024-04-21T02:56:35.846Z,100
2024-04-21T03:25:04.900Z,100
2024-04-21T03:53:22.767Z,100
2024-04-21T04:21:36.219Z,100
2024-04-21T04:49:52.917Z,100
2024-04-21T05:18:03.237Z,100
2024-04-21T05:46:45.353Z,100
2024-04-21T06:15:32.332Z,100
2024-04-21T06:44:32.337Z,100
2024-04-21T07:13:28.952Z,100
2024-04-21T07:42:18.437Z,100
2024-04-21T08:11:12.512Z,100
2024-04-21T08:40:07.388Z,100
2024-04-21T09:09:18.215Z,87.91
2024-04-21T09:38:36.712Z,83.91
2024-04-21T10:07:46.841Z,73.92
2024-04-21T10:35:44.023Z,96.08
2024-04-21T11:03:52.044Z,100
2024-04-21T11:32:15.785Z,98.54
2024-04-21T12:00:26.648Z,85.27
2024-04-21T12:29:35.115Z,72.98
2024-04-21T12:58:40.802Z,76.79
2024-04-21T13:27:32.060Z,80.77
2024-04-21T13:56:31.606Z,73.28
2024-04-21T14:25:44.993Z,61.39
2024-04-21T14:54:37.117Z,72.83
2024-04-21T15:23:48.363Z,73.29
2024-04-21T15:52:26.821Z,90.84
2024-04-21T16:21:22.521Z,100
2024-04-21T16:50:26.635Z,96.33
2024-04-21T17:18:40.924Z,99.05
2024-04-21T17:46:50.483Z,100
2024-04-21T18:15:12.300Z,100
2024-04-21T18:43:25.189Z,100
2024-04-21T19:11:44.176Z,100
2024-04-21T19:39:54.557Z,100
2024-04-21T20:08:22.074Z,100
2024-04-21T20:36:40.456Z,100
2024-04-21T21:05:00.194Z,100
2024-04-21T21:33:20.779Z,100
2024-04-21T22:01:38.007Z,100
2024-04-21T22:29:59.921Z,100
2024-04-21T22:58:20.645Z,100
2024-04-21T23:26:36.540Z,100
2024-04-21T23:54:52.978Z,100
